Time;durP1;ratioP1;P1;durP2;ratioP2;P2;SDS_P1;SDS_P2;PMS_P1;PMS_P2;Temp;Humidity;BMP_temperature;BMP_pressure;BME280_temperature;BME280_humidity;BME280_pressure;Samples;Min_cycle;Max_cycle;Signal;HPM_P1;HPM_P2
2023/06/22 00:00:44;;;;;;;11.95;6.72;;;;;;;15.94;100.00;93135.16;2076206;28;20025;-84
2023/06/22 00:01:51;;;;;;;13.27;6.43;;;;;;;16.00;100.00;93129.91;2068686;28;20514;-84
2023/06/22 00:02:56;;;;;;;8.60;6.50;;;;;;;15.98;100.00;93134.97;2082899;28;20141;-85
2023/06/22 00:04:03;;;;;;;9.70;6.70;;;;;;;15.91;100.00;93136.03;2086811;28;20037;-85
2023/06/22 00:05:10;;;;;;;10.93;6.05;;;;;;;15.89;100.00;93129.59;2078533;28;20029;-83
2023/06/22 00:06:17;;;;;;;7.03;5.90;;;;;;;15.91;100.00;93136.03;2070723;28;20034;-84
2023/06/22 00:07:30;;;;;;;9.57;6.18;;;;;;;15.88;100.00;93139.63;2073651;28;20138;-82
2023/06/22 00:08:36;;;;;;;7.88;6.47;;;;;;;15.91;100.00;93143.38;2074825;28;20055;-84
2023/06/22 00:09:40;;;;;;;9.07;6.68;;;;;;;15.94;100.00;93145.94;2073056;28;20509;-83
2023/06/22 00:10:48;;;;;;;10.07;6.43;;;;;;;15.88;100.00;93136.94;2071284;28;20018;-84
2023/06/22 00:11:52;;;;;;;14.70;7.22;;;;;;;15.89;100.00;93133.03;2073766;28;20489;-83
2023/06/22 00:13:01;;;;;;;12.25;6.97;;;;;;;15.90;100.00;93131.09;2074264;28;20036;-87
2023/06/22 00:14:12;;;;;;;9.15;6.55;;;;;;;15.93;100.00;93141.72;2075457;28;20030;-82
2023/06/22 00:15:16;;;;;;;10.00;7.07;;;;;;;15.88;100.00;93141.56;2077795;28;20048;-86
2023/06/22 00:16:22;;;;;;;10.68;7.07;;;;;;;15.92;100.00;93140.22;2077615;28;20037;-82
2023/06/22 00:17:33;;;;;;;8.75;6.68;;;;;;;15.83;100.00;93132.13;2073250;28;20026;-88
2023/06/22 00:18:46;;;;;;;12.10;7.05;;;;;;;15.78;100.00;93140.81;2082827;28;20048;-87
2023/06/22 00:19:55;;;;;;;10.70;6.45;;;;;;;15.79;100.00;93136.91;2080314;28;20091;-84
2023/06/22 00:21:04;;;;;;;11.98;6.78;;;;;;;15.79;100.00;93140.34;2067496;28;20026;-86
2023/06/22 00:22:14;;;;;;;13.25;6.70;;;;;;;15.81;100.00;93154.16;2067620;28;20115;-86
2023/06/22 00:23:21;;;;;;;11.15;7.25;;;;;;;15.87;100.00;93148.91;2074453;28;20034;-84
2023/06/22 00:24:26;;;;;;;14.10;6.93;;;;;;;15.84;100.00;93149.78;2073048;28;20030;-83
2023/06/22 00:25:32;;;;;;;10.95;6.47;;;;;;;15.79;100.00;93145.75;2063292;28;20549;-83
2023/06/22 00:26:38;;;;;;;10.20;7.07;;;;;;;15.83;100.00;93148.31;2067725;28;20061;-83
2023/06/22 00:27:46;;;;;;;11.18;7.03;;;;;;;15.77;100.00;93147.41;2075605;28;20037;-87
2023/06/22 00:28:53;;;;;;;13.35;7.25;;;;;;;15.80;100.00;93155.34;2075408;28;20091;-86
2023/06/22 00:30:00;;;;;;;9.07;6.88;;;;;;;15.85;100.00;93152.06;2060759;28;20042;-83
2023/06/22 00:31:21;;;;;;;16.83;8.27;;;;;;;15.79;100.00;93147.69;2069016;28;20089;-83
2023/06/22 00:32:29;;;;;;;9.00;6.85;;;;;;;15.73;100.00;93152.94;2078179;28;20036;-85
2023/06/22 00:33:36;;;;;;;14.10;7.10;;;;;;;15.73;100.00;93144.13;2074943;28;20049;-85
2023/06/22 00:34:46;;;;;;;10.43;6.75;;;;;;;15.73;100.00;93149.50;2075172;28;21046;-84
2023/06/22 00:35:52;;;;;;;15.25;7.28;;;;;;;15.77;100.00;93147.41;2068383;28;20034;-85
2023/06/22 00:36:56;;;;;;;9.77;7.05;;;;;;;15.79;100.00;93145.00;2067951;28;20041;-84
2023/06/22 00:38:06;;;;;;;12.27;6.82;;;;;;;15.76;100.00;93143.19;2071103;28;20026;-82
2023/06/22 00:39:14;;;;;;;11.35;7.00;;;;;;;15.76;100.00;93140.50;2078121;28;20493;-83
2023/06/22 00:40:21;;;;;;;10.02;6.30;;;;;;;15.74;100.00;93140.97;2077019;28;20088;-84
2023/06/22 00:41:31;;;;;;;8.57;6.25;;;;;;;15.62;100.00;93147.94;2078826;28;20026;-82
2023/06/22 00:42:41;;;;;;;13.52;6.85;;;;;;;15.64;100.00;93144.84;2079235;28;20500;-84
2023/06/22 00:43:46;;;;;;;13.98;6.68;;;;;;;15.70;100.00;93148.44;2086704;28;20021;-84
2023/06/22 00:44:49;;;;;;;9.38;6.82;;;;;;;15.67;100.00;93143.19;2090032;28;20480;-86
2023/06/22 00:45:58;;;;;;;10.50;6.57;;;;;;;15.62;100.00;93142.56;2095861;28;20024;-84
2023/06/22 00:47:04;;;;;;;9.30;6.28;;;;;;;15.56;100.00;93136.25;2077144;28;20033;-85
2023/06/22 00:48:11;;;;;;;11.95;7.10;;;;;;;15.61;100.00;93141.06;2077874;28;20022;-85
2023/06/22 00:49:19;;;;;;;11.25;7.10;;;;;;;15.59;100.00;93134.63;2105367;28;20024;-88
2023/06/22 00:50:27;;;;;;;13.98;6.72;;;;;;;15.57;100.00;93135.06;2092357;28;20552;-85
2023/06/22 00:51:37;;;;;;;9.43;6.60;;;;;;;15.56;100.00;93130.88;2081823;28;20048;-83
2023/06/22 00:52:45;;;;;;;9.43;6.53;;;;;;;15.53;100.00;93133.72;2077616;28;20049;-83
2023/06/22 00:53:54;;;;;;;9.40;6.40;;;;;;;15.58;100.00;93138.50;2090926;28;20021;-86
2023/06/22 00:55:03;;;;;;;13.95;6.80;;;;;;;15.56;100.00;93138.97;2086854;28;20405;-83
2023/06/22 00:56:10;;;;;;;8.13;6.68;;;;;;;15.51;100.00;93136.13;2070077;28;20034;-85
2023/06/22 00:57:22;;;;;;;9.85;7.10;;;;;;;15.56;100.00;93138.97;2076128;28;20060;-81
2023/06/22 00:58:26;;;;;;;14.88;7.95;;;;;;;15.66;100.00;93144.38;2076084;28;20457;-84
2023/06/22 00:59:34;;;;;;;15.23;7.75;;;;;;;15.71;100.00;93141.84;2071584;28;20466;-84
2023/06/22 01:00:42;;;;;;;10.10;7.47;;;;;;;15.75;100.00;93136.31;2079034;28;20109;-85
2023/06/22 01:01:49;;;;;;;12.05;7.72;;;;;;;15.79;100.00;93140.34;2084520;28;20029;-83
2023/06/22 01:02:51;;;;;;;12.35;8.57;;;;;;;15.83;100.00;93135.56;2074859;28;20355;-86
2023/06/22 01:03:52;;;;;;;16.75;8.27;;;;;;;15.86;100.00;93137.38;2074686;28;20059;-85
2023/06/22 01:04:55;;;;;;;16.48;7.82;;;;;;;15.88;100.00;93145.00;2082387;28;20096;-83
2023/06/22 01:06:11;;;;;;;12.27;8.52;;;;;;;15.94;100.00;93150.56;2075402;28;20038;-84
2023/06/22 01:07:45;;;;;;;14.35;8.70;;;;;;;16.16;100.00;93150.44;2078029;28;20109;-82
2023/06/22 01:09:02;;;;;;;14.75;8.40;;;;;;;16.16;100.00;93153.13;2078354;28;20026;-87
2023/06/22 01:10:29;;;;;;;15.15;8.80;;;;;;;16.19;100.00;93155.66;2076018;28;20165;-84
2023/06/22 01:12:00;;;;;;;12.85;8.70;;;;;;;16.14;100.00;93156.25;2077601;28;20025;-85
2023/06/22 01:13:29;;;;;;;12.65;8.27;;;;;;;16.17;100.00;93163.44;2091338;28;20791;-83
2023/06/22 01:14:54;;;;;;;11.63;8.75;;;;;;;16.11;100.00;93149.81;2081962;28;20409;-83
2023/06/22 01:16:25;;;;;;;11.57;8.35;;;;;;;16.11;100.00;93151.75;2073224;28;20053;-81
2023/06/22 01:17:34;;;;;;;11.38;8.02;;;;;;;16.13;100.00;93148.63;2082407;28;20056;-85
2023/06/22 01:18:45;;;;;;;13.05;8.52;;;;;;;16.15;100.00;93149.66;2076217;28;20060;-86
2023/06/22 01:19:57;;;;;;;12.48;8.80;;;;;;;16.14;100.00;93145.47;2069038;28;20049;-85
2023/06/22 01:21:11;;;;;;;16.50;9.23;;;;;;;16.14;100.00;93150.13;2069773;28;20051;-82
2023/06/22 01:22:28;;;;;;;11.75;8.85;;;;;;;16.16;100.00;93145.03;2092171;28;20033;-82
2023/06/22 01:23:58;;;;;;;11.88;8.45;;;;;;;16.18;100.00;93148.00;2084281;28;20005;-83
2023/06/22 01:25:12;;;;;;;;;;;;;;;16.16;100.00;93143.09;2086797;28;20096;-86
2023/06/22 01:26:34;;;;;;;12.77;8.65;;;;;;;16.19;100.00;93144.84;2092803;28;19947;-83
2023/06/22 01:28:01;;;;;;;13.95;9.55;;;;;;;16.16;100.00;93145.03;2084437;28;20028;-85
2023/06/22 01:29:13;;;;;;;11.57;9.38;;;;;;;16.19;100.00;93141.41;2075445;28;20111;-82
2023/06/22 01:30:26;;;;;;;13.77;9.95;;;;;;;16.19;100.00;93128.69;2080103;28;20060;-82
2023/06/22 01:31:37;;;;;;;13.40;9.68;;;;;;;16.19;100.00;93133.31;2077847;28;20092;-83
2023/06/22 01:32:47;;;;;;;15.18;10.88;;;;;;;16.28;100.00;93139.44;2074485;28;20037;-86
2023/06/22 01:34:07;;;;;;;12.52;9.98;;;;;;;16.25;100.00;93145.03;2075791;28;20018;-82
2023/06/22 01:35:17;;;;;;;10.70;9.38;;;;;;;16.18;100.00;93148.75;2075481;28;20033;-85
2023/06/22 01:36:26;;;;;;;13.23;9.73;;;;;;;16.16;100.00;93136.94;2068771;28;20093;-85
2023/06/22 01:37:39;;;;;;;13.10;10.35;;;;;;;16.13;100.00;93132.44;2068319;28;20029;-87
2023/06/22 01:38:49;;;;;;;11.63;9.75;;;;;;;16.11;100.00;93128.25;2068069;28;20026;-82
2023/06/22 01:40:00;;;;;;;18.95;10.25;;;;;;;16.15;100.00;93132.72;2075598;28;20041;-82
2023/06/22 01:41:10;;;;;;;12.40;10.02;;;;;;;16.21;100.00;93122.84;2075512;28;20030;-82
2023/06/22 01:42:20;;;;;;;15.40;10.32;;;;;;;16.20;100.00;93127.50;2082112;28;20036;-84
2023/06/22 01:43:30;;;;;;;13.48;9.77;;;;;;;16.29;100.00;93138.28;2083572;28;20030;-86
2023/06/22 01:44:45;;;;;;;16.13;10.15;;;;;;;16.27;100.00;93142.63;2078687;28;20092;-85
2023/06/22 01:45:53;;;;;;;15.32;9.80;;;;;;;16.25;100.00;93145.78;2067030;28;20023;-88
2023/06/22 01:47:03;;;;;;;14.52;10.40;;;;;;;16.23;100.00;93142.00;2074673;28;20030;-84
2023/06/22 01:48:11;;;;;;;14.00;9.57;;;;;;;16.16;100.00;93134.25;2085846;28;20088;-83
2023/06/22 01:49:21;;;;;;;15.50;9.95;;;;;;;16.14;100.00;93136.63;2081826;28;20036;-85
2023/06/22 01:50:30;;;;;;;15.25;10.10;;;;;;;16.10;100.00;93132.13;2076966;28;20029;-82
2023/06/22 01:51:40;;;;;;;14.05;10.13;;;;;;;16.09;100.00;93135.28;2065456;28;20627;-84
2023/06/22 01:52:46;;;;;;;;;;;;;;;16.08;100.00;93137.22;2070504;28;20103;-86
2023/06/22 01:53:56;;;;;;;13.18;10.40;;;;;;;16.14;100.00;93140.06;2079587;28;20310;-84
2023/06/22 01:55:07;;;;;;;13.68;10.95;;;;;;;16.15;100.00;93135.41;2074970;28;20057;-82
2023/06/22 01:56:13;;;;;;;14.55;10.30;;;;;;;16.19;100.00;93142.16;2092288;28;20040;-86
2023/06/22 01:57:22;;;;;;;17.08;11.10;;;;;;;16.21;100.00;93145.16;2097278;28;20012;-82
2023/06/22 01:58:31;;;;;;;14.27;11.05;;;;;;;16.16;100.00;93143.09;2090858;28;20025;-84
2023/06/22 01:59:43;;;;;;;14.98;10.70;;;;;;;16.11;100.00;93144.44;2074473;28;20099;-87
2023/06/22 02:01:10;;;;;;;15.10;9.73;;;;;;;16.08;100.00;93145.31;2061329;28;20053;-86
2023/06/22 02:02:15;;;;;;;14.15;10.05;;;;;;;16.11;100.00;93144.44;2081859;28;20031;-84
2023/06/22 02:03:29;;;;;;;11.70;10.38;;;;;;;16.08;100.00;93137.22;2094843;28;20045;-83
2023/06/22 02:04:45;;;;;;;12.30;11.05;;;;;;;16.01;100.00;93128.69;2081408;28;20104;-85
2023/06/22 02:05:54;;;;;;;13.38;10.45;;;;;;;15.93;100.00;93133.63;2069937;28;20035;-86
2023/06/22 02:06:58;;;;;;;16.90;10.25;;;;;;;15.91;100.00;93130.66;2076844;28;20489;-83
2023/06/22 02:08:18;;;;;;;12.93;11.00;;;;;;;15.90;100.00;93129.16;2081322;28;20033;-81
2023/06/22 02:09:24;;;;;;;15.23;10.43;;;;;;;15.84;100.00;93131.69;2070204;28;20034;-85
2023/06/22 02:10:28;;;;;;;15.40;9.30;;;;;;;15.86;100.00;93133.94;2074905;28;20124;-88
2023/06/22 02:11:33;;;;;;;12.50;10.00;;;;;;;15.89;100.00;93143.81;2066356;28;20053;-83
2023/06/22 02:12:37;;;;;;;12.60;10.10;;;;;;;15.90;100.00;93131.84;2074759;28;20034;-84
2023/06/22 02:13:42;;;;;;;14.18;10.15;;;;;;;15.91;100.00;93127.94;2073293;28;20488;-85
2023/06/22 02:14:46;;;;;;;15.80;10.40;;;;;;;15.86;100.00;93134.69;2079465;28;20530;-87
2023/06/22 02:15:48;;;;;;;14.40;10.32;;;;;;;15.86;100.00;93123.91;2088640;28;20056;-86
2023/06/22 02:16:51;;;;;;;12.43;9.75;;;;;;;15.85;100.00;93129.75;2080497;28;20025;-87
2023/06/22 02:17:56;;;;;;;11.35;9.13;;;;;;;15.86;100.00;93125.84;2081830;28;20076;-84
2023/06/22 02:19:02;;;;;;;14.70;10.50;;;;;;;15.78;100.00;93122.69;2066103;28;20110;-85
2023/06/22 02:20:08;;;;;;;16.33;10.23;;;;;;;15.76;100.00;93119.72;2072750;28;20052;-83
2023/06/22 02:21:12;;;;;;;13.48;10.43;;;;;;;15.71;100.00;93122.97;2077111;28;20030;-85
2023/06/22 02:22:13;;;;;;;11.88;10.20;;;;;;;15.74;100.00;93118.66;2088283;28;20622;-87
2023/06/22 02:23:15;;;;;;;14.23;9.80;;;;;;;15.70;100.00;93121.50;2094225;28;20025;-85
2023/06/22 02:24:16;;;;;;;16.45;10.38;;;;;;;15.66;100.00;93114.75;2073064;28;20025;-82
2023/06/22 02:25:17;;;;;;;12.38;10.05;;;;;;;15.65;100.00;93118.66;2073408;28;20025;-84
2023/06/22 02:26:18;;;;;;;14.52;10.25;;;;;;;15.71;100.00;93119.53;2072017;28;20100;-85
2023/06/22 02:27:22;;;;;;;14.05;9.35;;;;;;;15.68;100.00;93126.59;2074056;28;20037;-86
2023/06/22 02:28:25;;;;;;;15.75;10.13;;;;;;;15.67;100.00;93121.63;2081347;28;20482;-84
2023/06/22 02:29:28;;;;;;;12.77;10.05;;;;;;;15.65;100.00;93118.66;2088657;28;20089;-84
2023/06/22 02:30:31;;;;;;;13.65;9.65;;;;;;;15.60;100.00;93119.97;2089791;28;20020;-84
2023/06/22 02:31:33;;;;;;;15.13;9.45;;;;;;;15.55;100.00;93120.56;2075940;28;20026;-84
2023/06/22 02:32:35;;;;;;;11.40;9.05;;;;;;;15.52;100.00;93116.81;2070703;28;20116;-82
2023/06/22 02:33:36;;;;;;;14.70;10.07;;;;;;;15.50;100.00;93119.22;2084538;28;20531;-82
2023/06/22 02:34:37;;;;;;;11.55;9.55;;;;;;;15.51;100.00;93114.56;2079959;28;20022;-85
2023/06/22 02:35:45;;;;;;;15.43;10.00;;;;;;;15.51;100.00;93119.94;2086656;28;20063;-88
2023/06/22 02:36:52;;;;;;;15.48;9.50;;;;;;;15.58;100.00;93119.66;2090075;28;20461;-83
2023/06/22 02:37:54;;;;;;;12.05;9.45;;;;;;;15.57;100.00;93116.19;2077251;28;20047;-83
2023/06/22 02:39:00;;;;;;;12.75;9.63;;;;;;;15.50;100.00;93121.16;2088690;28;20061;-82
2023/06/22 02:40:04;;;;;;;14.10;10.18;;;;;;;15.51;100.00;93118.00;2089512;28;20096;-83
2023/06/22 02:41:06;;;;;;;15.45;8.77;;;;;;;15.47;100.00;93120.09;2073179;28;20056;-86
2023/06/22 02:42:12;;;;;;;11.52;9.55;;;;;;;15.45;100.00;93125.19;2072908;28;20091;-85
2023/06/22 02:43:13;;;;;;;13.68;9.90;;;;;;;15.42;100.00;93120.69;2080765;28;20033;-83
2023/06/22 02:44:14;;;;;;;11.88;9.93;;;;;;;15.41;100.00;93121.88;2080520;28;20067;-85
2023/06/22 02:45:16;;;;;;;13.90;9.25;;;;;;;15.38;100.00;93122.78;2072692;28;20030;-84
2023/06/22 02:46:17;;;;;;;13.82;9.82;;;;;;;15.36;100.00;93130.53;2081907;28;20033;-83
2023/06/22 02:47:20;;;;;;;11.45;8.90;;;;;;;15.32;100.00;93117.22;2081694;28;20481;-83
2023/06/22 02:48:21;;;;;;;10.60;8.95;;;;;;;15.37;100.00;93118.59;2069195;28;20481;-83
2023/06/22 02:49:24;;;;;;;14.80;9.20;;;;;;;15.34;100.00;93120.22;2081279;28;20048;-84
2023/06/22 02:50:25;;;;;;;14.02;10.00;;;;;;;15.38;100.00;93119.31;2092149;28;20016;-85
2023/06/22 02:51:28;;;;;;;10.98;9.52;;;;;;;15.34;100.00;93117.53;2087002;28;20139;-86
2023/06/22 02:52:29;;;;;;;13.57;9.85;;;;;;;15.32;100.00;93114.53;2066031;28;20054;-85
2023/06/22 02:53:30;;;;;;;16.42;10.32;;;;;;;15.34;100.00;93106.00;2064783;28;20109;-84
2023/06/22 02:54:33;;;;;;;16.20;10.20;;;;;;;15.34;100.00;93116.78;2064485;28;20026;-83
2023/06/22 02:55:34;;;;;;;13.38;9.57;;;;;;;15.31;100.00;93112.28;2081103;28;20063;-83
2023/06/22 02:56:37;;;;;;;12.10;9.38;;;;;;;15.26;100.00;93110.16;2072681;28;20084;-83
2023/06/22 02:57:43;;;;;;;10.88;9.60;;;;;;;15.19;100.00;93111.22;2058837;28;20034;-82
2023/06/22 02:58:45;;;;;;;11.75;9.30;;;;;;;15.16;100.00;93104.00;2066158;28;20407;-82
2023/06/22 02:59:47;;;;;;;10.88;9.45;;;;;;;15.22;100.00;93104.91;2080418;28;20160;-88
2023/06/22 03:00:48;;;;;;;10.65;9.25;;;;;;;15.20;100.00;93111.97;2082061;28;20666;-84
2023/06/22 03:01:50;;;;;;;11.50;9.40;;;;;;;15.11;100.00;93097.28;2080666;28;20064;-86
2023/06/22 03:02:52;;;;;;;12.70;8.70;;;;;;;15.11;100.00;93107.28;2089620;28;20049;-83
2023/06/22 03:03:54;;;;;;;11.68;9.13;;;;;;;15.07;100.00;93099.34;2081055;28;20025;-83
2023/06/22 03:04:57;;;;;;;11.75;9.20;;;;;;;15.08;100.00;93095.47;2067342;28;20118;-86
2023/06/22 03:06:04;;;;;;;9.85;8.65;;;;;;;15.02;100.00;93105.31;2074662;28;20026;-83
2023/06/22 03:07:06;;;;;;;9.98;8.77;;;;;;;14.99;100.00;93106.19;2078834;28;20033;-82
2023/06/22 03:08:08;;;;;;;11.32;9.07;;;;;;;14.89;100.00;93104.69;2081497;28;20025;-89
2023/06/22 03:09:10;;;;;;;11.52;8.63;;;;;;;14.98;100.00;93106.66;2089462;28;20455;-83
2023/06/22 03:10:13;;;;;;;11.05;8.25;;;;;;;15.03;100.00;93103.38;2084008;28;20031;-82
2023/06/22 03:11:14;;;;;;;9.90;8.10;;;;;;;15.02;100.00;93104.56;2073998;28;20510;-86
2023/06/22 03:12:15;;;;;;;13.85;8.48;;;;;;;14.95;100.00;93102.91;2067787;28;20496;-85
2023/06/22 03:13:20;;;;;;;9.40;8.48;;;;;;;15.03;100.00;93104.13;2083078;28;20041;-82
2023/06/22 03:14:22;;;;;;;14.05;9.00;;;;;;;15.00;100.00;93104.25;2098632;28;20514;-82
2023/06/22 03:15:26;;;;;;;12.35;9.57;;;;;;;14.97;100.00;93103.22;2086340;28;20485;-83
2023/06/22 03:16:29;;;;;;;11.52;8.60;;;;;;;14.96;100.00;93101.69;2083975;28;20029;-87
2023/06/22 03:17:30;;;;;;;13.85;9.90;;;;;;;14.95;100.00;93099.47;2083334;28;20030;-84
2023/06/22 03:18:31;;;;;;;17.35;9.27;;;;;;;14.92;100.00;93093.00;2074995;28;20432;-86
2023/06/22 03:19:33;;;;;;;11.85;8.93;;;;;;;14.89;100.00;93099.31;2085479;28;20116;-83
2023/06/22 03:20:37;;;;;;;10.55;8.65;;;;;;;14.87;100.00;93096.28;2069973;28;20480;-82
2023/06/22 03:21:46;;;;;;;10.00;8.02;;;;;;;14.82;100.00;93099.56;2081378;28;20030;-86
2023/06/22 03:22:54;;;;;;;11.45;7.70;;;;;;;14.85;100.00;93094.06;2093458;28;20075;-86
2023/06/22 03:23:57;;;;;;;10.50;8.48;;;;;;;14.82;100.00;93100.31;2099590;28;20024;-82
2023/06/22 03:25:13;;;;;;;10.10;9.10;;;;;;;14.80;100.00;93097.31;2091862;28;20033;-86
2023/06/22 03:26:26;;;;;;;9.55;8.02;;;;;;;14.86;100.00;93100.19;2091763;28;20025;-85
2023/06/22 03:27:35;;;;;;;14.55;9.32;;;;;;;14.84;100.00;93089.13;2083493;28;20021;-85
2023/06/22 03:28:48;;;;;;;10.48;8.35;;;;;;;14.87;100.00;93090.91;2077210;28;20021;-86
2023/06/22 03:29:59;;;;;;;10.90;8.55;;;;;;;14.84;100.00;93089.13;2089162;28;20056;-82
2023/06/22 03:31:08;;;;;;;14.32;8.60;;;;;;;14.81;100.00;93085.38;2077204;28;20060;-85
2023/06/22 03:32:17;;;;;;;12.73;9.23;;;;;;;14.81;100.00;93087.31;2086473;28;20025;-83
2023/06/22 03:33:26;;;;;;;12.10;9.38;;;;;;;14.80;100.00;93083.88;2076894;28;20009;-85
2023/06/22 03:34:36;;;;;;;12.30;9.18;;;;;;;14.71;100.00;93091.16;2069030;28;20046;-85
2023/06/22 03:35:45;;;;;;;9.88;8.38;;;;;;;14.70;100.00;93092.34;2075511;28;20029;-83
2023/06/22 03:36:55;;;;;;;9.27;8.30;;;;;;;14.75;100.00;93091.75;2071062;28;20022;-81
2023/06/22 03:37:59;;;;;;;;;;;;;;;14.73;100.00;93092.19;2092253;28;20447;-83
2023/06/22 03:39:07;;;;;;;10.07;8.30;;;;;;;14.72;100.00;93092.66;2090926;28;20676;-82
2023/06/22 03:40:16;;;;;;;12.32;8.85;;;;;;;14.70;100.00;93097.72;2085077;28;20378;-86
2023/06/22 03:41:20;;;;;;;12.63;9.00;;;;;;;14.68;100.00;93089.34;2072781;28;20041;-85
2023/06/22 03:42:33;;;;;;;11.45;8.20;;;;;;;14.66;100.00;93091.72;2067326;28;20394;-85
2023/06/22 03:43:37;;;;;;;10.63;8.60;;;;;;;14.70;100.00;93089.63;2082552;28;20191;-85
2023/06/22 03:44:48;;;;;;;13.43;8.82;;;;;;;14.74;100.00;93082.94;2096957;28;20404;-82
2023/06/22 03:45:56;;;;;;;14.52;9.63;;;;;;;14.77;100.00;93084.00;2090268;28;20021;-86
2023/06/22 03:47:02;;;;;;;12.27;10.13;;;;;;;14.81;100.00;93088.06;2083624;28;20108;-84
2023/06/22 03:48:09;;;;;;;14.10;9.75;;;;;;;14.80;100.00;93083.13;2069021;28;20509;-87
2023/06/22 03:49:14;;;;;;;12.25;9.52;;;;;;;14.76;100.00;93082.50;2084268;28;20076;-87
2023/06/22 03:50:20;;;;;;;12.90;9.82;;;;;;;14.75;100.00;93094.44;2083624;28;20108;-83
2023/06/22 03:51:24;;;;;;;14.68;9.20;;;;;;;14.75;100.00;93083.69;2083726;28;20453;-87
2023/06/22 03:52:37;;;;;;;13.13;8.98;;;;;;;14.72;100.00;93089.97;2083123;28;20030;-84
2023/06/22 03:53:41;;;;;;;14.70;9.73;;;;;;;14.75;100.00;93094.44;2076236;28;20026;-86
2023/06/22 03:54:48;;;;;;;11.15;9.70;;;;;;;14.76;100.00;93098.66;2075385;28;20101;-86
2023/06/22 03:55:56;;;;;;;11.45;9.50;;;;;;;14.74;100.00;93095.63;2091478;28;20479;-82
2023/06/22 03:57:12;;;;;;;10.73;9.63;;;;;;;14.81;100.00;93087.31;2084276;28;20033;-86
2023/06/22 03:58:21;;;;;;;15.48;9.25;;;;;;;14.82;100.00;93094.19;2074163;28;20118;-83
2023/06/22 03:59:29;;;;;;;12.32;9.15;;;;;;;14.76;100.00;93096.72;2071991;28;20038;-83
2023/06/22 04:00:33;;;;;;;14.10;9.02;;;;;;;14.81;100.00;93093.44;2089423;28;20075;-83
2023/06/22 04:01:39;;;;;;;12.05;9.40;;;;;;;14.79;100.00;93095.06;2073657;28;20042;-84
2023/06/22 04:02:50;;;;;;;15.20;9.00;;;;;;;14.85;100.00;93087.91;2074268;28;20033;-86
2023/06/22 04:03:58;;;;;;;10.85;9.02;;;;;;;14.84;100.00;93091.81;2083238;28;20025;-84
2023/06/22 04:05:08;;;;;;;13.35;9.77;;;;;;;14.82;100.00;93083.41;2087651;28;20039;-84
2023/06/22 04:06:16;;;;;;;10.23;8.43;;;;;;;14.80;100.00;93091.19;2083250;28;20072;-85
2023/06/22 04:07:25;;;;;;;14.30;8.38;;;;;;;14.89;100.00;93093.91;2082322;28;20148;-84
2023/06/22 04:08:31;;;;;;;11.93;8.68;;;;;;;14.87;100.00;93082.81;2086246;28;20467;-82
2023/06/22 04:09:40;;;;;;;11.32;8.40;;;;;;;14.92;100.00;93086.88;2096653;28;20025;-83
2023/06/22 04:10:47;;;;;;;10.15;8.15;;;;;;;14.86;100.00;93086.72;2087803;28;20093;-84
2023/06/22 04:11:56;;;;;;;10.30;9.15;;;;;;;14.90;100.00;93084.66;2077958;28;20033;-86
2023/06/22 04:13:06;;;;;;;10.63;9.52;;;;;;;14.95;100.00;93089.44;2078560;28;20034;-84
2023/06/22 04:14:10;;;;;;;11.00;8.52;;;;;;;14.97;100.00;93084.38;2078119;28;20111;-83
2023/06/22 04:15:19;;;;;;;10.60;8.63;;;;;;;15.00;100.00;93083.47;2084502;28;20033;-84
2023/06/22 04:16:29;;;;;;;12.82;9.10;;;;;;;14.98;100.00;93083.19;2092213;28;20021;-86
2023/06/22 04:17:34;;;;;;;10.30;9.25;;;;;;;15.03;100.00;93082.59;2095985;28;20020;-83
2023/06/22 04:18:41;;;;;;;13.15;9.15;;;;;;;14.99;100.00;93081.22;2089968;28;20381;-84
2023/06/22 04:19:49;;;;;;;10.75;8.93;;;;;;;15.07;100.00;93077.81;2081764;28;20540;-85
2023/06/22 04:20:53;;;;;;;12.63;10.02;;;;;;;15.10;100.00;93076.16;2082391;28;20791;-84
2023/06/22 04:22:07;;;;;;;10.60;9.13;;;;;;;15.10;100.00;93074.25;2079124;28;20026;-84
2023/06/22 04:23:15;;;;;;;11.15;8.73;;;;;;;15.09;100.00;93072.72;2079866;28;20025;-87
2023/06/22 04:24:24;;;;;;;9.52;8.68;;;;;;;15.14;100.00;93073.34;2086478;28;20030;-86
2023/06/22 04:25:33;;;;;;;9.77;7.80;;;;;;;15.19;100.00;93067.34;2068339;28;20474;-84
2023/06/22 04:26:46;;;;;;;17.08;9.35;;;;;;;15.20;100.00;93066.94;2067219;28;20021;-83
2023/06/22 04:28:03;;;;;;;12.95;8.38;;;;;;;15.17;100.00;93064.38;2063734;28;20469;-84
2023/06/22 04:29:09;;;;;;;15.05;9.45;;;;;;;15.17;100.00;93064.38;2068029;28;20068;-83
2023/06/22 04:30:22;;;;;;;13.80;9.02;;;;;;;15.19;100.00;93065.44;2073546;28;20505;-85
2023/06/22 04:31:43;;;;;;;16.90;9.63;;;;;;;15.21;100.00;93065.72;2071720;28;20034;-83
2023/06/22 04:33:07;;;;;;;16.38;10.02;;;;;;;15.29;100.00;93068.88;2076800;28;20048;-86
2023/06/22 04:34:10;;;;;;;11.25;9.50;;;;;;;15.36;100.00;93068.59;2077281;28;20156;-84
2023/06/22 04:35:15;;;;;;;12.38;9.50;;;;;;;15.44;100.00;93064.41;2083711;28;20028;-85
2023/06/22 04:36:30;;;;;;;16.60;10.52;;;;;;;15.48;100.00;93066.97;2081121;28;20037;-82
2023/06/22 04:37:32;;;;;;;11.35;9.68;;;;;;;15.47;100.00;93068.91;2076765;28;20028;-85
2023/06/22 04:38:35;;;;;;;12.35;9.90;;;;;;;15.48;100.00;93073.09;2073324;28;20109;-83
2023/06/22 04:39:37;;;;;;;11.30;9.65;;;;;;;15.57;100.00;93075.03;2073507;28;20243;-87
2023/06/22 04:40:44;;;;;;;13.40;10.55;;;;;;;15.62;100.00;93074.44;2069663;28;20512;-83
2023/06/22 04:41:53;;;;;;;11.80;10.45;;;;;;;15.70;100.00;93066.84;2072566;28;20045;-84
2023/06/22 04:43:02;;;;;;;15.55;10.65;;;;;;;15.75;100.00;93075.06;2077340;28;20040;-84
2023/06/22 04:44:25;;;;;;;13.82;10.48;;;;;;;15.74;100.00;93072.84;2071014;28;20088;-84
2023/06/22 04:45:38;;;;;;;13.77;10.65;;;;;;;15.74;100.00;93084.38;2082230;28;20085;-87
2023/06/22 04:46:40;;;;;;;11.13;10.00;;;;;;;15.80;100.00;93081.81;2090744;28;20041;-85
2023/06/22 04:47:48;;;;;;;11.70;10.40;;;;;;;15.82;100.00;93079.44;2077056;28;20381;-82
2023/06/22 04:48:54;;;;;;;11.43;10.02;;;;;;;15.86;100.00;93069.25;2073001;28;20088;-86
2023/06/22 04:50:06;;;;;;;13.13;9.88;;;;;;;15.89;100.00;93076.41;2076864;28;20037;-85
2023/06/22 04:51:13;;;;;;;14.82;9.70;;;;;;;15.92;100.00;93078.22;2081902;28;20108;-85
2023/06/22 04:52:17;;;;;;;12.82;9.35;;;;;;;15.99;100.00;93077.91;2081119;28;20484;-83
2023/06/22 04:53:25;;;;;;;14.15;9.75;;;;;;;16.03;100.00;93081.22;2078332;28;20033;-86
2023/06/22 04:54:33;;;;;;;13.52;10.20;;;;;;;16.05;100.00;93078.81;2085999;28;20118;-84
2023/06/22 04:55:41;;;;;;;15.93;10.90;;;;;;;16.10;100.00;93080.88;2075451;28;20022;-83
2023/06/22 04:56:46;;;;;;;14.07;11.07;;;;;;;16.10;100.00;93088.25;2070204;28;20110;-84
2023/06/22 04:57:48;;;;;;;17.20;10.82;;;;;;;16.09;100.00;93079.41;2063333;28;20030;-86
2023/06/22 04:58:51;;;;;;;15.18;11.35;;;;;;;16.17;100.00;93081.78;2076586;28;20116;-83
2023/06/22 04:59:52;;;;;;;15.77;10.40;;;;;;;16.23;100.00;93077.28;2076507;28;20123;-84
2023/06/22 05:00:53;;;;;;;13.07;10.85;;;;;;;16.25;100.00;93078.34;2082962;28;20026;-86
2023/06/22 05:01:55;;;;;;;11.90;10.38;;;;;;;16.32;100.00;93069.16;2087323;28;20047;-83
2023/06/22 05:02:57;;;;;;;16.02;11.95;;;;;;;16.39;100.00;93066.16;2074605;28;20037;-84
2023/06/22 05:04:00;;;;;;;18.35;12.20;;;;;;;16.40;100.00;93073.06;2071942;28;20025;-84
2023/06/22 05:05:06;;;;;;;14.15;11.63;;;;;;;16.48;100.00;93073.50;2085060;28;20103;-87
2023/06/22 05:06:08;;;;;;;17.58;12.38;;;;;;;16.53;100.00;93073.63;2080790;28;20030;-84
2023/06/22 05:07:09;;;;;;;17.25;12.77;;;;;;;16.54;100.00;93077.81;2082313;28;20306;-85
2023/06/22 05:08:13;;;;;;;13.43;11.88;;;;;;;16.55;100.00;93073.91;2087699;28;20576;-85
2023/06/22 05:09:17;;;;;;;18.55;13.40;;;;;;;16.59;100.00;93077.22;2073317;28;20036;-84
2023/06/22 05:10:18;;;;;;;14.32;11.68;;;;;;;16.56;100.00;93074.66;2063137;28;20038;-85
2023/06/22 05:11:20;;;;;;;16.48;13.57;;;;;;;16.66;100.00;93075.38;2062895;28;20116;-85